Caroleen, North Carolina
Current Conditions -  °F | °C
As of 10:55 PM on Wednesday 22 Oct 2014 (Local Time) from KEHO Reporting Station
Clear Clear  
Wind Chill: 47°   Ceiling: Unl
Heat Index: 47°   Visibility: 10mi
Dew Point: 38°   Wind: 3mph
Humidity: 73%   Direction: 280°W
Pressure: 30.12"   Gusts: NA
Location:  35.28°N, 81.8°W
Report Text: KEHO 230255Z AUTO 28003KT 10SM CLR 08/04 A3012 RMK AO2 T00810035
Loading
Personal Weather Stations






























Interactive Weather Map
Tropical Storm Tracking
New forecast layout! Learn more

10-Day Weather Forecast

Advertisements
Track Severe Weather on mobile